sensor_id;sensor_type;location;lat;lon;timestamp;temperature;humidity
13464;DHT22;6804;48.774;9.174;2023-09-19T00:00:41;19.10;99.90
13464;DHT22;6804;48.774;9.174;2023-09-19T00:03:11;19.10;99.90
13464;DHT22;6804;48.774;9.174;2023-09-19T00:05:39;19.10;99.90
13464;DHT22;6804;48.774;9.174;2023-09-19T00:08:10;19.10;99.90
13464;DHT22;6804;48.774;9.174;2023-09-19T00:10:39;19.10;99.90
13464;DHT22;6804;48.774;9.174;2023-09-19T00:13:12;19.10;99.90
13464;DHT22;6804;48.774;9.174;2023-09-19T00:15:42;19.10;99.90
13464;DHT22;6804;48.774;9.174;2023-09-19T00:18:17;19.10;99.90
13464;DHT22;6804;48.774;9.174;2023-09-19T00:20:49;19.00;99.90
13464;DHT22;6804;48.774;9.174;2023-09-19T00:23:17;19.00;99.90
13464;DHT22;6804;48.774;9.174;2023-09-19T00:25:46;19.00;99.90
13464;DHT22;6804;48.774;9.174;2023-09-19T00:28:20;19.00;99.90
13464;DHT22;6804;48.774;9.174;2023-09-19T00:30:47;19.10;99.90
13464;DHT22;6804;48.774;9.174;2023-09-19T00:33:19;19.00;99.90
13464;DHT22;6804;48.774;9.174;2023-09-19T00:35:50;19.10;99.90
13464;DHT22;6804;48.774;9.174;2023-09-19T00:38:21;19.00;99.90
13464;DHT22;6804;48.774;9.174;2023-09-19T00:40:53;19.10;99.90
13464;DHT22;6804;48.774;9.174;2023-09-19T00:43:22;19.10;99.90
13464;DHT22;6804;48.774;9.174;2023-09-19T00:45:52;19.10;99.90
13464;DHT22;6804;48.774;9.174;2023-09-19T00:48:24;19.10;99.90
13464;DHT22;6804;48.774;9.174;2023-09-19T00:50:55;19.10;99.90
13464;DHT22;6804;48.774;9.174;2023-09-19T00:53:30;19.10;99.90
13464;DHT22;6804;48.774;9.174;2023-09-19T00:56:02;19.10;99.90
13464;DHT22;6804;48.774;9.174;2023-09-19T00:58:33;19.00;99.90
13464;DHT22;6804;48.774;9.174;2023-09-19T01:01:01;19.00;99.90
13464;DHT22;6804;48.774;9.174;2023-09-19T01:03:29;19.00;99.90
13464;DHT22;6804;48.774;9.174;2023-09-19T01:06:01;19.00;99.90
13464;DHT22;6804;48.774;9.174;2023-09-19T01:08:29;19.00;99.90
13464;DHT22;6804;48.774;9.174;2023-09-19T01:11:03;19.00;99.90
13464;DHT22;6804;48.774;9.174;2023-09-19T01:13:47;18.90;99.90
13464;DHT22;6804;48.774;9.174;2023-09-19T01:16:27;18.90;99.90
13464;DHT22;6804;48.774;9.174;2023-09-19T01:19:07;18.90;99.90
13464;DHT22;6804;48.774;9.174;2023-09-19T01:21:51;18.90;99.90
13464;DHT22;6804;48.774;9.174;2023-09-19T01:24:55;18.90;99.90
13464;DHT22;6804;48.774;9.174;2023-09-19T01:27:53;18.90;99.90
13464;DHT22;6804;48.774;9.174;2023-09-19T01:30:32;19.00;99.90
13464;DHT22;6804;48.774;9.174;2023-09-19T01:33:06;19.00;99.90
13464;DHT22;6804;48.774;9.174;2023-09-19T01:35:41;18.90;99.90
13464;DHT22;6804;48.774;9.174;2023-09-19T01:38:11;19.00;99.90
13464;DHT22;6804;48.774;9.174;2023-09-19T01:40:42;19.00;99.90
13464;DHT22;6804;48.774;9.174;2023-09-19T01:43:17;19.00;99.90
13464;DHT22;6804;48.774;9.174;2023-09-19T01:45:55;19.00;99.90
13464;DHT22;6804;48.774;9.174;2023-09-19T01:48:34;19.00;99.90
13464;DHT22;6804;48.774;9.174;2023-09-19T01:51:06;19.00;99.90
13464;DHT22;6804;48.774;9.174;2023-09-19T01:53:39;19.00;99.90
13464;DHT22;6804;48.774;9.174;2023-09-19T01:56:12;19.00;99.90
13464;DHT22;6804;48.774;9.174;2023-09-19T01:58:48;18.90;99.90
13464;DHT22;6804;48.774;9.174;2023-09-19T02:01:20;18.90;99.90
13464;DHT22;6804;48.774;9.174;2023-09-19T02:03:50;18.90;99.90
13464;DHT22;6804;48.774;9.174;2023-09-19T02:06:18;18.90;99.90
13464;DHT22;6804;48.774;9.174;2023-09-19T02:08:47;18.90;99.90
13464;DHT22;6804;48.774;9.174;2023-09-19T02:11:15;18.90;99.90
13464;DHT22;6804;48.774;9.174;2023-09-19T02:13:45;19.00;99.90
13464;DHT22;6804;48.774;9.174;2023-09-19T02:16:14;19.00;99.90
13464;DHT22;6804;48.774;9.174;2023-09-19T02:18:53;19.00;99.90
13464;DHT22;6804;48.774;9.174;2023-09-19T02:21:20;18.90;99.90
13464;DHT22;6804;48.774;9.174;2023-09-19T02:23:48;18.90;99.90
13464;DHT22;6804;48.774;9.174;2023-09-19T02:26:18;18.90;99.90
13464;DHT22;6804;48.774;9.174;2023-09-19T02:28:53;18.80;99.90
13464;DHT22;6804;48.774;9.174;2023-09-19T02:31:24;18.90;99.90
13464;DHT22;6804;48.774;9.174;2023-09-19T02:33:52;18.90;99.90
13464;DHT22;6804;48.774;9.174;2023-09-19T02:36:20;18.90;99.90
13464;DHT22;6804;48.774;9.174;2023-09-19T02:38:49;18.80;99.90
13464;DHT22;6804;48.774;9.174;2023-09-19T02:41:18;18.90;99.90
13464;DHT22;6804;48.774;9.174;2023-09-19T02:43:48;18.80;99.90
13464;DHT22;6804;48.774;9.174;2023-09-19T02:46:20;18.80;99.90
13464;DHT22;6804;48.774;9.174;2023-09-19T02:48:55;18.80;99.90
13464;DHT22;6804;48.774;9.174;2023-09-19T02:51:25;18.80;99.90
13464;DHT22;6804;48.774;9.174;2023-09-19T02:53:53;18.80;99.90
13464;DHT22;6804;48.774;9.174;2023-09-19T02:56:20;18.80;99.90
13464;DHT22;6804;48.774;9.174;2023-09-19T02:58:54;18.80;99.90
13464;DHT22;6804;48.774;9.174;2023-09-19T03:01:24;18.70;99.90
13464;DHT22;6804;48.774;9.174;2023-09-19T03:03:54;18.70;99.90
13464;DHT22;6804;48.774;9.174;2023-09-19T03:06:25;18.70;99.90
13464;DHT22;6804;48.774;9.174;2023-09-19T03:08:54;18.80;99.90
13464;DHT22;6804;48.774;9.174;2023-09-19T03:11:22;18.80;99.90
13464;DHT22;6804;48.774;9.174;2023-09-19T03:13:52;18.80;99.90
13464;DHT22;6804;48.774;9.174;2023-09-19T03:16:28;18.80;99.90
13464;DHT22;6804;48.774;9.174;2023-09-19T03:18:57;18.80;99.90
13464;DHT22;6804;48.774;9.174;2023-09-19T03:21:25;18.80;99.90
13464;DHT22;6804;48.774;9.174;2023-09-19T03:23:55;18.80;99.90
13464;DHT22;6804;48.774;9.174;2023-09-19T03:26:23;18.80;99.90
13464;DHT22;6804;48.774;9.174;2023-09-19T03:28:54;18.80;99.90
13464;DHT22;6804;48.774;9.174;2023-09-19T03:31:24;18.80;99.90
13464;DHT22;6804;48.774;9.174;2023-09-19T03:33:51;18.80;99.90
13464;DHT22;6804;48.774;9.174;2023-09-19T03:36:20;18.80;99.90
13464;DHT22;6804;48.774;9.174;2023-09-19T03:38:48;18.80;99.90
13464;DHT22;6804;48.774;9.174;2023-09-19T03:41:17;18.80;99.90
13464;DHT22;6804;48.774;9.174;2023-09-19T03:43:44;18.80;99.90
13464;DHT22;6804;48.774;9.174;2023-09-19T03:46:12;18.80;99.90
13464;DHT22;6804;48.774;9.174;2023-09-19T03:48:41;18.80;99.90
13464;DHT22;6804;48.774;9.174;2023-09-19T03:51:09;18.80;99.90
13464;DHT22;6804;48.774;9.174;2023-09-19T03:53:38;18.80;99.90
13464;DHT22;6804;48.774;9.174;2023-09-19T03:56:05;18.80;99.90
13464;DHT22;6804;48.774;9.174;2023-09-19T03:58:37;18.80;99.90
13464;DHT22;6804;48.774;9.174;2023-09-19T04:01:06;18.80;99.90
13464;DHT22;6804;48.774;9.174;2023-09-19T04:03:34;18.80;99.90
13464;DHT22;6804;48.774;9.174;2023-09-19T04:06:17;18.80;99.90
13464;DHT22;6804;48.774;9.174;2023-09-19T04:08:47;18.80;99.90
13464;DHT22;6804;48.774;9.174;2023-09-19T04:11:18;18.80;99.90
13464;DHT22;6804;48.774;9.174;2023-09-19T04:13:45;18.80;99.90
13464;DHT22;6804;48.774;9.174;2023-09-19T04:16:13;18.80;99.90
13464;DHT22;6804;48.774;9.174;2023-09-19T04:18:41;18.80;99.90
13464;DHT22;6804;48.774;9.174;2023-09-19T04:21:08;18.80;99.90
13464;DHT22;6804;48.774;9.174;2023-09-19T04:23:36;18.80;99.90
13464;DHT22;6804;48.774;9.174;2023-09-19T04:26:07;18.80;99.90
13464;DHT22;6804;48.774;9.174;2023-09-19T04:28:53;18.90;99.90
13464;DHT22;6804;48.774;9.174;2023-09-19T04:31:25;18.80;99.90
13464;DHT22;6804;48.774;9.174;2023-09-19T04:33:53;18.80;99.90
13464;DHT22;6804;48.774;9.174;2023-09-19T04:36:24;18.80;99.90
13464;DHT22;6804;48.774;9.174;2023-09-19T04:38:54;18.80;99.90
13464;DHT22;6804;48.774;9.174;2023-09-19T04:41:28;18.80;99.90
13464;DHT22;6804;48.774;9.174;2023-09-19T04:43:57;18.80;99.90
13464;DHT22;6804;48.774;9.174;2023-09-19T04:46:24;18.80;99.90
13464;DHT22;6804;48.774;9.174;2023-09-19T04:48:53;18.80;99.90
13464;DHT22;6804;48.774;9.174;2023-09-19T04:51:24;18.80;99.90
13464;DHT22;6804;48.774;9.174;2023-09-19T04:53:57;18.80;99.90
13464;DHT22;6804;48.774;9.174;2023-09-19T04:56:28;18.80;99.90
13464;DHT22;6804;48.774;9.174;2023-09-19T04:58:58;18.80;99.90
13464;DHT22;6804;48.774;9.174;2023-09-19T05:01:28;18.80;99.90
13464;DHT22;6804;48.774;9.174;2023-09-19T05:04:18;18.80;99.90
13464;DHT22;6804;48.774;9.174;2023-09-19T05:06:47;18.80;99.90
13464;DHT22;6804;48.774;9.174;2023-09-19T05:09:18;18.80;99.90
13464;DHT22;6804;48.774;9.174;2023-09-19T05:11:48;18.80;99.90
13464;DHT22;6804;48.774;9.174;2023-09-19T05:14:18;18.70;99.90
13464;DHT22;6804;48.774;9.174;2023-09-19T05:17:05;18.70;99.90
13464;DHT22;6804;48.774;9.174;2023-09-19T05:19:37;18.70;99.90
13464;DHT22;6804;48.774;9.174;2023-09-19T05:22:05;18.60;99.90
13464;DHT22;6804;48.774;9.174;2023-09-19T05:24:35;18.70;99.90
13464;DHT22;6804;48.774;9.174;2023-09-19T05:27:07;18.70;99.90
13464;DHT22;6804;48.774;9.174;2023-09-19T05:29:34;18.70;99.90
13464;DHT22;6804;48.774;9.174;2023-09-19T05:32:02;18.60;99.90
13464;DHT22;6804;48.774;9.174;2023-09-19T05:34:31;18.60;99.90
13464;DHT22;6804;48.774;9.174;2023-09-19T05:37:00;18.60;99.90
13464;DHT22;6804;48.774;9.174;2023-09-19T05:39:28;18.50;99.90
13464;DHT22;6804;48.774;9.174;2023-09-19T05:41:56;18.50;99.90
13464;DHT22;6804;48.774;9.174;2023-09-19T05:44:26;18.50;99.90
13464;DHT22;6804;48.774;9.174;2023-09-19T05:46:54;18.50;99.90
13464;DHT22;6804;48.774;9.174;2023-09-19T05:49:23;18.60;99.90
13464;DHT22;6804;48.774;9.174;2023-09-19T05:51:51;18.60;99.90
13464;DHT22;6804;48.774;9.174;2023-09-19T05:54:23;18.60;99.90
13464;DHT22;6804;48.774;9.174;2023-09-19T05:56:51;18.50;99.90
13464;DHT22;6804;48.774;9.174;2023-09-19T05:59:20;18.40;99.90
13464;DHT22;6804;48.774;9.174;2023-09-19T06:01:49;18.30;99.90
13464;DHT22;6804;48.774;9.174;2023-09-19T06:04:23;18.30;99.90
13464;DHT22;6804;48.774;9.174;2023-09-19T06:06:53;18.20;99.90
13464;DHT22;6804;48.774;9.174;2023-09-19T06:09:20;18.30;99.90
13464;DHT22;6804;48.774;9.174;2023-09-19T06:11:52;18.20;99.90
13464;DHT22;6804;48.774;9.174;2023-09-19T06:14:39;18.20;99.90
13464;DHT22;6804;48.774;9.174;2023-09-19T06:17:27;18.20;99.90
13464;DHT22;6804;48.774;9.174;2023-09-19T06:19:55;18.20;99.90
13464;DHT22;6804;48.774;9.174;2023-09-19T06:22:23;18.20;99.90
13464;DHT22;6804;48.774;9.174;2023-09-19T06:24:51;18.10;99.90
13464;DHT22;6804;48.774;9.174;2023-09-19T06:27:22;18.10;99.90
13464;DHT22;6804;48.774;9.174;2023-09-19T06:29:51;18.00;99.90
13464;DHT22;6804;48.774;9.174;2023-09-19T06:32:31;18.00;99.90
13464;DHT22;6804;48.774;9.174;2023-09-19T06:34:59;18.00;99.90
13464;DHT22;6804;48.774;9.174;2023-09-19T06:37:48;18.00;99.90
13464;DHT22;6804;48.774;9.174;2023-09-19T06:40:17;18.00;99.90
13464;DHT22;6804;48.774;9.174;2023-09-19T06:42:51;18.10;99.90
13464;DHT22;6804;48.774;9.174;2023-09-19T06:45:20;18.20;99.90
13464;DHT22;6804;48.774;9.174;2023-09-19T06:47:51;18.20;99.90
13464;DHT22;6804;48.774;9.174;2023-09-19T06:50:23;18.20;99.90
13464;DHT22;6804;48.774;9.174;2023-09-19T06:52:55;18.20;99.90
13464;DHT22;6804;48.774;9.174;2023-09-19T06:55:46;18.30;99.90
13464;DHT22;6804;48.774;9.174;2023-09-19T06:58:17;18.30;99.90
13464;DHT22;6804;48.774;9.174;2023-09-19T07:00:46;18.40;99.90
13464;DHT22;6804;48.774;9.174;2023-09-19T07:03:21;18.50;99.90
13464;DHT22;6804;48.774;9.174;2023-09-19T07:05:53;18.50;99.90
13464;DHT22;6804;48.774;9.174;2023-09-19T07:08:22;18.70;99.90
13464;DHT22;6804;48.774;9.174;2023-09-19T07:10:49;18.80;99.90
13464;DHT22;6804;48.774;9.174;2023-09-19T07:13:20;19.00;99.90
13464;DHT22;6804;48.774;9.174;2023-09-19T07:15:50;19.10;99.90
13464;DHT22;6804;48.774;9.174;2023-09-19T07:18:22;19.30;99.90
13464;DHT22;6804;48.774;9.174;2023-09-19T07:20:49;19.30;99.90
13464;DHT22;6804;48.774;9.174;2023-09-19T07:23:18;19.40;99.90
13464;DHT22;6804;48.774;9.174;2023-09-19T07:25:52;19.50;99.90
13464;DHT22;6804;48.774;9.174;2023-09-19T07:28:22;19.50;99.90
13464;DHT22;6804;48.774;9.174;2023-09-19T07:30:50;19.50;99.90
13464;DHT22;6804;48.774;9.174;2023-09-19T07:33:26;19.50;99.90
13464;DHT22;6804;48.774;9.174;2023-09-19T07:35:54;19.60;99.90
13464;DHT22;6804;48.774;9.174;2023-09-19T07:38:22;19.60;99.90
13464;DHT22;6804;48.774;9.174;2023-09-19T07:40:51;19.70;99.90
13464;DHT22;6804;48.774;9.174;2023-09-19T07:43:23;19.80;99.90
13464;DHT22;6804;48.774;9.174;2023-09-19T07:45:54;19.80;99.90
13464;DHT22;6804;48.774;9.174;2023-09-19T07:48:21;19.90;99.90
13464;DHT22;6804;48.774;9.174;2023-09-19T07:50:54;20.00;99.90
13464;DHT22;6804;48.774;9.174;2023-09-19T07:53:22;20.10;99.90
13464;DHT22;6804;48.774;9.174;2023-09-19T07:56:02;20.20;99.90
13464;DHT22;6804;48.774;9.174;2023-09-19T07:58:30;20.30;99.90
13464;DHT22;6804;48.774;9.174;2023-09-19T08:01:03;20.40;99.90
13464;DHT22;6804;48.774;9.174;2023-09-19T08:03:33;20.50;99.90
13464;DHT22;6804;48.774;9.174;2023-09-19T08:06:02;20.60;99.90
13464;DHT22;6804;48.774;9.174;2023-09-19T08:08:35;20.80;99.90
13464;DHT22;6804;48.774;9.174;2023-09-19T08:11:04;20.90;99.90
13464;DHT22;6804;48.774;9.174;2023-09-19T08:13:38;21.10;99.90
13464;DHT22;6804;48.774;9.174;2023-09-19T08:16:12;21.40;99.90
13464;DHT22;6804;48.774;9.174;2023-09-19T08:18:41;21.50;99.90
13464;DHT22;6804;48.774;9.174;2023-09-19T08:21:12;21.70;99.90
13464;DHT22;6804;48.774;9.174;2023-09-19T08:23:41;21.70;99.90
13464;DHT22;6804;48.774;9.174;2023-09-19T08:26:12;21.80;99.90
13464;DHT22;6804;48.774;9.174;2023-09-19T08:28:40;21.90;99.90
13464;DHT22;6804;48.774;9.174;2023-09-19T08:31:08;22.00;99.90
13464;DHT22;6804;48.774;9.174;2023-09-19T08:33:40;22.00;99.90
13464;DHT22;6804;48.774;9.174;2023-09-19T08:36:13;22.10;99.90
13464;DHT22;6804;48.774;9.174;2023-09-19T08:38:43;22.20;99.90
13464;DHT22;6804;48.774;9.174;2023-09-19T08:41:17;22.50;99.90
13464;DHT22;6804;48.774;9.174;2023-09-19T08:43:46;22.50;99.90
13464;DHT22;6804;48.774;9.174;2023-09-19T08:46:15;22.50;99.90
13464;DHT22;6804;48.774;9.174;2023-09-19T08:48:49;22.50;99.90
13464;DHT22;6804;48.774;9.174;2023-09-19T08:51:26;22.60;99.90
13464;DHT22;6804;48.774;9.174;2023-09-19T08:54:06;22.70;99.90
13464;DHT22;6804;48.774;9.174;2023-09-19T08:56:36;22.60;99.90
13464;DHT22;6804;48.774;9.174;2023-09-19T08:59:06;22.40;99.90
13464;DHT22;6804;48.774;9.174;2023-09-19T09:01:43;22.40;99.90
13464;DHT22;6804;48.774;9.174;2023-09-19T09:04:14;22.50;99.90
13464;DHT22;6804;48.774;9.174;2023-09-19T09:06:45;22.50;99.90
13464;DHT22;6804;48.774;9.174;2023-09-19T09:09:17;22.60;99.90
13464;DHT22;6804;48.774;9.174;2023-09-19T09:11:45;22.70;99.90
13464;DHT22;6804;48.774;9.174;2023-09-19T09:14:21;22.70;99.90
13464;DHT22;6804;48.774;9.174;2023-09-19T09:16:53;22.80;99.90
13464;DHT22;6804;48.774;9.174;2023-09-19T09:19:25;22.90;99.90
13464;DHT22;6804;48.774;9.174;2023-09-19T09:22:06;23.00;99.90
13464;DHT22;6804;48.774;9.174;2023-09-19T09:24:36;23.10;99.90
13464;DHT22;6804;48.774;9.174;2023-09-19T09:27:06;23.20;99.90
13464;DHT22;6804;48.774;9.174;2023-09-19T09:29:44;23.20;99.90
13464;DHT22;6804;48.774;9.174;2023-09-19T09:32:26;23.20;99.90
13464;DHT22;6804;48.774;9.174;2023-09-19T09:34:57;23.10;99.90
13464;DHT22;6804;48.774;9.174;2023-09-19T09:37:32;23.20;99.90
13464;DHT22;6804;48.774;9.174;2023-09-19T09:40:05;23.20;99.90
13464;DHT22;6804;48.774;9.174;2023-09-19T09:42:46;23.10;99.90
13464;DHT22;6804;48.774;9.174;2023-09-19T09:45:17;23.00;99.90
13464;DHT22;6804;48.774;9.174;2023-09-19T09:47:50;23.10;99.90
13464;DHT22;6804;48.774;9.174;2023-09-19T09:50:27;23.20;99.90
13464;DHT22;6804;48.774;9.174;2023-09-19T09:53:26;23.40;99.90
13464;DHT22;6804;48.774;9.174;2023-09-19T09:55:59;23.40;99.90
13464;DHT22;6804;48.774;9.174;2023-09-19T09:58:51;23.40;99.90
13464;DHT22;6804;48.774;9.174;2023-09-19T10:01:25;23.30;99.90
13464;DHT22;6804;48.774;9.174;2023-09-19T10:03:58;23.20;99.90
13464;DHT22;6804;48.774;9.174;2023-09-19T10:06:43;23.20;99.90
13464;DHT22;6804;48.774;9.174;2023-09-19T10:09:15;23.40;99.90
13464;DHT22;6804;48.774;9.174;2023-09-19T10:11:47;23.40;99.90
13464;DHT22;6804;48.774;9.174;2023-09-19T10:14:26;23.50;99.90
13464;DHT22;6804;48.774;9.174;2023-09-19T10:16:59;23.60;99.90
13464;DHT22;6804;48.774;9.174;2023-09-19T10:19:36;23.80;99.90
13464;DHT22;6804;48.774;9.174;2023-09-19T10:22:10;23.60;99.60
13464;DHT22;6804;48.774;9.174;2023-09-19T10:24:49;23.40;99.80
13464;DHT22;6804;48.774;9.174;2023-09-19T10:27:26;23.20;99.90
13464;DHT22;6804;48.774;9.174;2023-09-19T10:29:57;23.00;99.90
13464;DHT22;6804;48.774;9.174;2023-09-19T10:32:28;22.60;99.90
13464;DHT22;6804;48.774;9.174;2023-09-19T10:35:00;22.60;99.90
13464;DHT22;6804;48.774;9.174;2023-09-19T10:37:35;22.70;99.90
13464;DHT22;6804;48.774;9.174;2023-09-19T10:40:11;22.90;99.90
13464;DHT22;6804;48.774;9.174;2023-09-19T10:43:03;22.90;99.90
13464;DHT22;6804;48.774;9.174;2023-09-19T10:45:36;22.90;99.90
13464;DHT22;6804;48.774;9.174;2023-09-19T10:48:11;23.00;99.90
13464;DHT22;6804;48.774;9.174;2023-09-19T10:50:45;23.20;99.90
13464;DHT22;6804;48.774;9.174;2023-09-19T10:53:20;23.30;99.90
13464;DHT22;6804;48.774;9.174;2023-09-19T10:55:57;23.50;99.80
13464;DHT22;6804;48.774;9.174;2023-09-19T10:58:32;23.50;99.20
13464;DHT22;6804;48.774;9.174;2023-09-19T11:01:07;23.40;99.40
13464;DHT22;6804;48.774;9.174;2023-09-19T11:03:39;23.40;99.70
13464;DHT22;6804;48.774;9.174;2023-09-19T11:06:11;23.50;99.70
13464;DHT22;6804;48.774;9.174;2023-09-19T11:08:58;23.50;99.30
13464;DHT22;6804;48.774;9.174;2023-09-19T11:11:52;23.40;99.40
13464;DHT22;6804;48.774;9.174;2023-09-19T11:14:42;23.20;99.60
13464;DHT22;6804;48.774;9.174;2023-09-19T11:17:41;23.00;99.70
13464;DHT22;6804;48.774;9.174;2023-09-19T11:20:26;23.00;99.90
13464;DHT22;6804;48.774;9.174;2023-09-19T11:23:24;23.10;99.90
13464;DHT22;6804;48.774;9.174;2023-09-19T11:25:56;23.10;99.00
13464;DHT22;6804;48.774;9.174;2023-09-19T11:28:38;23.10;99.40
13464;DHT22;6804;48.774;9.174;2023-09-19T11:38:01;23.10;98.90
13464;DHT22;6804;48.774;9.174;2023-09-19T11:40:35;23.30;98.30
13464;DHT22;6804;48.774;9.174;2023-09-19T11:43:28;23.40;97.40
13464;DHT22;6804;48.774;9.174;2023-09-19T11:46:09;23.20;96.70
13464;DHT22;6804;48.774;9.174;2023-09-19T11:48:41;23.20;97.00
13464;DHT22;6804;48.774;9.174;2023-09-19T11:51:19;23.20;96.40
13464;DHT22;6804;48.774;9.174;2023-09-19T11:53:56;23.30;96.60
13464;DHT22;6804;48.774;9.174;2023-09-19T11:56:28;23.40;96.40
13464;DHT22;6804;48.774;9.174;2023-09-19T11:58:59;23.60;97.00
13464;DHT22;6804;48.774;9.174;2023-09-19T12:01:36;23.80;96.80
13464;DHT22;6804;48.774;9.174;2023-09-19T12:04:09;23.90;96.40
13464;DHT22;6804;48.774;9.174;2023-09-19T12:06:42;23.90;96.30
13464;DHT22;6804;48.774;9.174;2023-09-19T12:09:12;24.00;95.80
13464;DHT22;6804;48.774;9.174;2023-09-19T12:11:46;24.00;95.70
13464;DHT22;6804;48.774;9.174;2023-09-19T12:14:23;24.20;95.60
13464;DHT22;6804;48.774;9.174;2023-09-19T12:17:05;24.20;95.50
13464;DHT22;6804;48.774;9.174;2023-09-19T12:19:37;24.20;95.90
13464;DHT22;6804;48.774;9.174;2023-09-19T12:22:07;24.30;95.90
13464;DHT22;6804;48.774;9.174;2023-09-19T12:24:38;24.30;95.70
13464;DHT22;6804;48.774;9.174;2023-09-19T12:27:09;24.40;96.10
13464;DHT22;6804;48.774;9.174;2023-09-19T12:29:46;24.50;96.10
13464;DHT22;6804;48.774;9.174;2023-09-19T12:32:34;24.60;95.80
13464;DHT22;6804;48.774;9.174;2023-09-19T12:35:10;24.80;95.50
13464;DHT22;6804;48.774;9.174;2023-09-19T12:38:00;24.90;95.40
13464;DHT22;6804;48.774;9.174;2023-09-19T12:40:31;24.70;95.00
13464;DHT22;6804;48.774;9.174;2023-09-19T12:43:06;24.60;95.40
13464;DHT22;6804;48.774;9.174;2023-09-19T12:45:37;24.60;95.40
13464;DHT22;6804;48.774;9.174;2023-09-19T12:48:24;24.80;95.20
13464;DHT22;6804;48.774;9.174;2023-09-19T12:51:05;24.70;95.40
13464;DHT22;6804;48.774;9.174;2023-09-19T12:53:35;24.70;95.40
13464;DHT22;6804;48.774;9.174;2023-09-19T12:56:07;24.70;95.40
13464;DHT22;6804;48.774;9.174;2023-09-19T12:58:54;24.70;95.40
13464;DHT22;6804;48.774;9.174;2023-09-19T13:01:22;24.70;95.10
13464;DHT22;6804;48.774;9.174;2023-09-19T13:04:12;24.60;94.90
13464;DHT22;6804;48.774;9.174;2023-09-19T13:06:45;24.30;95.20
13464;DHT22;6804;48.774;9.174;2023-09-19T13:09:16;24.20;95.00
13464;DHT22;6804;48.774;9.174;2023-09-19T13:11:49;24.10;95.50
13464;DHT22;6804;48.774;9.174;2023-09-19T13:14:24;24.10;95.60
13464;DHT22;6804;48.774;9.174;2023-09-19T13:17:02;24.00;95.80
13464;DHT22;6804;48.774;9.174;2023-09-19T13:19:42;24.10;95.90
13464;DHT22;6804;48.774;9.174;2023-09-19T13:22:41;24.20;95.40
13464;DHT22;6804;48.774;9.174;2023-09-19T13:25:15;24.30;95.70
13464;DHT22;6804;48.774;9.174;2023-09-19T13:27:46;24.50;95.50
13464;DHT22;6804;48.774;9.174;2023-09-19T13:30:21;24.70;94.60
13464;DHT22;6804;48.774;9.174;2023-09-19T13:32:51;24.70;94.40
13464;DHT22;6804;48.774;9.174;2023-09-19T13:35:22;24.80;94.40
13464;DHT22;6804;48.774;9.174;2023-09-19T13:37:53;24.70;94.10
13464;DHT22;6804;48.774;9.174;2023-09-19T13:40:22;24.60;94.30
13464;DHT22;6804;48.774;9.174;2023-09-19T13:42:50;24.50;94.80
13464;DHT22;6804;48.774;9.174;2023-09-19T13:45:23;24.60;94.80
13464;DHT22;6804;48.774;9.174;2023-09-19T13:47:56;24.70;95.40
13464;DHT22;6804;48.774;9.174;2023-09-19T13:50:32;24.80;95.50
13464;DHT22;6804;48.774;9.174;2023-09-19T13:53:04;24.90;95.30
13464;DHT22;6804;48.774;9.174;2023-09-19T13:55:32;24.90;94.70
13464;DHT22;6804;48.774;9.174;2023-09-19T13:58:01;24.90;94.10
13464;DHT22;6804;48.774;9.174;2023-09-19T14:00:30;24.90;93.90
13464;DHT22;6804;48.774;9.174;2023-09-19T14:03:04;24.90;93.80
13464;DHT22;6804;48.774;9.174;2023-09-19T14:05:33;24.90;93.90
13464;DHT22;6804;48.774;9.174;2023-09-19T14:08:01;25.00;94.10
13464;DHT22;6804;48.774;9.174;2023-09-19T14:10:31;25.00;94.00
13464;DHT22;6804;48.774;9.174;2023-09-19T14:13:03;25.00;94.10
13464;DHT22;6804;48.774;9.174;2023-09-19T14:15:32;24.90;94.00
13464;DHT22;6804;48.774;9.174;2023-09-19T14:18:05;24.90;94.10
13464;DHT22;6804;48.774;9.174;2023-09-19T14:20:38;24.80;94.00
13464;DHT22;6804;48.774;9.174;2023-09-19T14:23:11;24.90;94.20
13464;DHT22;6804;48.774;9.174;2023-09-19T14:25:45;24.80;94.10
13464;DHT22;6804;48.774;9.174;2023-09-19T14:28:14;24.70;92.80
13464;DHT22;6804;48.774;9.174;2023-09-19T14:30:42;24.70;93.00
13464;DHT22;6804;48.774;9.174;2023-09-19T14:33:14;24.60;92.80
13464;DHT22;6804;48.774;9.174;2023-09-19T14:35:45;24.60;92.10
13464;DHT22;6804;48.774;9.174;2023-09-19T14:38:15;24.50;92.50
13464;DHT22;6804;48.774;9.174;2023-09-19T14:40:43;24.40;92.70
13464;DHT22;6804;48.774;9.174;2023-09-19T14:43:15;24.40;93.00
13464;DHT22;6804;48.774;9.174;2023-09-19T14:45:45;24.40;93.00
13464;DHT22;6804;48.774;9.174;2023-09-19T14:48:14;24.40;92.70
13464;DHT22;6804;48.774;9.174;2023-09-19T14:50:46;24.30;92.60
13464;DHT22;6804;48.774;9.174;2023-09-19T14:53:17;24.30;92.70
13464;DHT22;6804;48.774;9.174;2023-09-19T14:55:48;24.30;92.80
13464;DHT22;6804;48.774;9.174;2023-09-19T14:58:18;24.40;92.60
13464;DHT22;6804;48.774;9.174;2023-09-19T15:00:47;24.50;92.70
13464;DHT22;6804;48.774;9.174;2023-09-19T15:03:23;24.50;92.30
13464;DHT22;6804;48.774;9.174;2023-09-19T15:06:01;24.50;92.30
13464;DHT22;6804;48.774;9.174;2023-09-19T15:08:34;24.50;92.50
13464;DHT22;6804;48.774;9.174;2023-09-19T15:11:05;24.50;92.70
13464;DHT22;6804;48.774;9.174;2023-09-19T15:13:35;24.50;92.70
13464;DHT22;6804;48.774;9.174;2023-09-19T15:16:16;24.40;92.70
13464;DHT22;6804;48.774;9.174;2023-09-19T15:18:46;24.30;92.20
13464;DHT22;6804;48.774;9.174;2023-09-19T15:21:15;24.10;92.30
13464;DHT22;6804;48.774;9.174;2023-09-19T15:23:44;24.00;92.70
13464;DHT22;6804;48.774;9.174;2023-09-19T15:26:15;24.00;92.90
13464;DHT22;6804;48.774;9.174;2023-09-19T15:28:46;24.00;93.10
13464;DHT22;6804;48.774;9.174;2023-09-19T15:31:14;23.90;92.70
13464;DHT22;6804;48.774;9.174;2023-09-19T15:33:42;23.90;92.60
13464;DHT22;6804;48.774;9.174;2023-09-19T15:36:14;23.90;92.50
13464;DHT22;6804;48.774;9.174;2023-09-19T15:38:59;23.80;92.80
13464;DHT22;6804;48.774;9.174;2023-09-19T15:41:28;23.80;92.60
13464;DHT22;6804;48.774;9.174;2023-09-19T15:43:57;23.80;92.90
13464;DHT22;6804;48.774;9.174;2023-09-19T15:46:37;23.80;92.90
13464;DHT22;6804;48.774;9.174;2023-09-19T15:49:08;23.80;93.00
13464;DHT22;6804;48.774;9.174;2023-09-19T15:51:37;23.80;93.10
13464;DHT22;6804;48.774;9.174;2023-09-19T15:54:14;23.80;93.10
13464;DHT22;6804;48.774;9.174;2023-09-19T15:56:45;23.80;93.30
13464;DHT22;6804;48.774;9.174;2023-09-19T15:59:19;23.70;93.20
13464;DHT22;6804;48.774;9.174;2023-09-19T16:01:47;23.70;93.50
13464;DHT22;6804;48.774;9.174;2023-09-19T16:04:17;23.80;93.40
13464;DHT22;6804;48.774;9.174;2023-09-19T16:06:46;23.60;93.70
13464;DHT22;6804;48.774;9.174;2023-09-19T16:09:19;23.60;93.60
13464;DHT22;6804;48.774;9.174;2023-09-19T16:11:49;23.60;93.70
13464;DHT22;6804;48.774;9.174;2023-09-19T16:14:17;23.50;93.70
13464;DHT22;6804;48.774;9.174;2023-09-19T16:16:46;23.60;93.70
13464;DHT22;6804;48.774;9.174;2023-09-19T16:19:16;23.50;93.70
13464;DHT22;6804;48.774;9.174;2023-09-19T16:21:46;23.50;93.80
13464;DHT22;6804;48.774;9.174;2023-09-19T16:24:19;23.50;93.80
13464;DHT22;6804;48.774;9.174;2023-09-19T16:26:47;23.40;93.90